ホワイトホース の空港の天気 - METARとTAF

ホワイトホース国際空港 ( CYXY / YXY ) - カナダ ユーコン準州ホワイトホース
飛行場実況気象(Metar)
観測時間07/18 20:00 PDT (07/19 03:00 UTC)
風向・風速南 4m/s
視程10km以上
天気現象
少しの雲 雲底高度 2130m
全天の8割程度の雲 雲底高度 3350m
全天の8割程度の雲 雲底高度 7620m
気温24℃
湿度36%
気圧1009.2hPa
METARCYXY 190300Z 19007KT 40SM FEW070CB BKN110 BKN250 24/08 A2978 RMK CB2AC3CI2 SLP092 DENSITY ALT 4000FT
過去の天気等 Google飛行場航空写真 Wunderground天気予報

過去48時間のMETAR

飛行場予報(TAF)
発表時間: 7/18 16:38 PDT (7/18 23:38 UTC)
予報対象時間: 18日17時 PDT ~ 19日17時 PDT
風向・風速不定 2m/s
視程10km以上
全天の4割程度の雲 雲底高度 2130m
18日17時 PDT ~ 18日20時 PDT に一時的に
風向・風速不定 8m/s 瞬間風速 13m/s
視程10km以上
天気現象弱い雷雨
全天の8割程度の積乱雲 雲底高度 2130m
18日20時 PDT から
風向・風速南 4m/s
視程10km以上
全天の4割程度の雲 雲底高度 2130m
19日14時 PDT から
風向・風速不定 2m/s
視程10km以上
全天の8割程度の雲 雲底高度 2130m
19日14時 PDT から 確率 30% で
風向・風速不定 8m/s 瞬間風速 13m/s
視程10km以上
天気現象雷雨 もや
全天の8割程度の積乱雲 雲底高度 2130m
TAF CYXY 182338Z 1900/1924 VRB03KT P6SM SCT070
TEMPO 1900/1903 VRB15G25KT P6SM -TSRA BKN070CB
FM190300 17008KT P6SM SCT070
FM192100 VRB03KT P6SM BKN070
PROB30 1921/1924 VRB15G25KT 6SM TSRA BR BKN070CB RMK NXT FCST BY 190600Z